OCN2Y LPMA-EDDF

Flight info

Callsign OCN2Y
Flight time 3h 28m
Altitude 38000
Route MARCU DCT RAKUN DCT MARUM DCT TUNAV DCT IBIDO DCT DEMOS DCT LOTEE DCT AZFIC UN741 NTS DCT PIWIZ DCT TSU UN858 OQQAL DCT RANUX/N0450F390 DCT VALEK DCT LUTAX DCT DIK T856 NIVNU/N0427F230 T847 IMCOM IMCOM1D
Aircraft A320/M-SDE3FGHIRWY/LB1

Departure

Time 2026-04-07 14:53
Airport Cristiano Ronaldo International Airport (LPMA)

Arrival

Time 2026-04-07 18:22
Airport Frankfurt Main Airport (EDDF)
Time Latitude Longitude Altitude Speed Heading
2026-04-07 14:06 32.69387 -16.77629 169 ft 0 kts 138°
2026-04-07 14:43 32.69393 -16.77635 142 ft 3 kts 138°
2026-04-07 14:44 32.69408 -16.77651 142 ft 3 kts 138°
2026-04-07 14:44 32.69422 -16.77664 169 ft 3 kts 166°
2026-04-07 14:44 32.69439 -16.77664 169 ft 3 kts 207°
2026-04-07 14:44 32.69454 -16.77653 169 ft 1 kts 226°
2026-04-07 14:45 32.69463 -16.77641 169 ft 2 kts 226°
2026-04-07 14:45 32.69467 -16.77636 169 ft 0 kts 226°
2026-04-07 14:47 32.69461 -16.77643 169 ft 1 kts 226°
2026-04-07 14:48 32.69447 -16.77661 169 ft 4 kts 226°
2026-04-07 14:48 32.69429 -16.77683 169 ft 3 kts 226°
2026-04-07 14:48 32.69405 -16.77712 169 ft 9 kts 226°
2026-04-07 14:48 32.69362 -16.77765 169 ft 9 kts 226°
2026-04-07 14:49 32.69321 -16.77815 169 ft 8 kts 225°
2026-04-07 14:49 32.69289 -16.77868 169 ft 8 kts 251°
2026-04-07 14:49 32.69288 -16.77928 169 ft 7 kts 272°
2026-04-07 14:49 32.69288 -16.77989 169 ft 8 kts 268°
2026-04-07 14:50 32.69270 -16.78052 168 ft 9 kts 225°
2026-04-07 14:50 32.69223 -16.78106 166 ft 10 kts 224°
2026-04-07 14:50 32.69166 -16.78173 163 ft 13 kts 225°
2026-04-07 14:50 32.69097 -16.78253 159 ft 15 kts 224°
2026-04-07 14:51 32.69017 -16.78346 155 ft 17 kts 224°
2026-04-07 14:51 32.68914 -16.78404 154 ft 14 kts 191°
2026-04-07 14:51 32.68892 -16.78468 154 ft 8 kts 321°
2026-04-07 14:51 32.68916 -16.78466 154 ft 3 kts 42°
2026-04-07 14:52 32.68920 -16.78462 154 ft 0 kts 45°
2026-04-07 14:53 32.68929 -16.78451 154 ft 17 kts 45°
2026-04-07 14:53 32.69227 -16.78102 167 ft 97 kts 45°
2026-04-07 14:53 32.69862 -16.77367 226 ft 150 kts 46°
2026-04-07 14:53 32.70557 -16.76485 1017 ft 148 kts 56°
2026-04-07 14:54 32.70894 -16.75272 1605 ft 168 kts 84°
2026-04-07 14:54 32.70623 -16.73821 2075 ft 193 kts 109°
2026-04-07 14:54 32.70128 -16.72259 2633 ft 212 kts 108°
2026-04-07 14:54 32.69598 -16.70531 3309 ft 226 kts 107°
2026-04-07 14:55 32.69069 -16.68772 4196 ft 237 kts 104°
2026-04-07 14:55 32.68500 -16.66835 4799 ft 260 kts 104°
2026-04-07 14:55 32.67879 -16.64719 5493 ft 279 kts 105°
2026-04-07 14:55 32.67226 -16.62524 6486 ft 286 kts 105°
2026-04-07 14:56 32.66552 -16.60274 7426 ft 292 kts 105°
2026-04-07 14:56 32.66117 -16.57905 8278 ft 296 kts 89°
2026-04-07 14:56 32.66263 -16.55477 9179 ft 297 kts 72°
2026-04-07 14:56 32.66985 -16.53188 10075 ft 297 kts 54°
2026-04-07 14:57 32.68231 -16.51206 10708 ft 304 kts 38°
2026-04-07 14:57 32.69880 -16.49513 11068 ft 326 kts 33°
2026-04-07 14:57 32.71689 -16.47724 11364 ft 350 kts 34°
2026-04-07 14:57 32.73621 -16.45808 11588 ft 374 kts 34°
2026-04-07 14:58 32.75661 -16.43766 12015 ft 389 kts 35°
2026-04-07 14:58 32.77710 -16.41689 12707 ft 395 kts 35°
2026-04-07 14:58 32.79804 -16.39552 13446 ft 399 kts 35°
2026-04-07 14:58 32.81924 -16.37384 14165 ft 404 kts 35°
2026-04-07 14:59 32.84067 -16.35195 14799 ft 407 kts 34°
2026-04-07 14:59 32.86320 -16.33163 15386 ft 407 kts 27°
2026-04-07 14:59 32.88693 -16.31294 16059 ft 410 kts 26°
2026-04-07 14:59 32.91079 -16.29422 16738 ft 411 kts 26°
2026-04-07 15:00 32.93479 -16.27542 17378 ft 414 kts 26°
2026-04-07 15:00 32.95894 -16.25646 18059 ft 415 kts 26°
2026-04-07 15:00 32.98316 -16.23744 18670 ft 418 kts 26°
2026-04-07 15:00 33.00760 -16.21825 19177 ft 421 kts 25°
2026-04-07 15:01 33.03217 -16.19892 19679 ft 424 kts 25°
2026-04-07 15:01 33.05687 -16.17946 20169 ft 427 kts 25°
2026-04-07 15:01 33.08178 -16.15981 20645 ft 430 kts 25°
2026-04-07 15:01 33.10652 -16.14024 21088 ft 433 kts 25°
2026-04-07 15:02 33.13175 -16.12027 21533 ft 436 kts 25°
2026-04-07 15:02 33.15715 -16.10012 21972 ft 439 kts 25°
2026-04-07 15:02 33.18264 -16.07987 22473 ft 442 kts 25°
2026-04-07 15:02 33.20831 -16.05949 22905 ft 444 kts 25°
2026-04-07 15:03 33.23413 -16.03901 23309 ft 447 kts 25°
2026-04-07 15:03 33.26012 -16.01836 23702 ft 450 kts 25°
2026-04-07 15:03 33.28632 -15.99753 24052 ft 453 kts 25°
2026-04-07 15:03 33.31264 -15.97659 24364 ft 457 kts 24°
2026-04-07 15:04 33.33918 -15.95550 24664 ft 460 kts 24°
2026-04-07 15:04 33.36590 -15.93424 24973 ft 462 kts 24°
2026-04-07 15:04 33.39279 -15.91281 25272 ft 465 kts 24°
2026-04-07 15:04 33.41979 -15.89130 25573 ft 468 kts 24°
2026-04-07 15:05 33.44694 -15.86964 25919 ft 470 kts 24°
2026-04-07 15:05 33.47422 -15.84782 26228 ft 472 kts 24°
2026-04-07 15:05 33.50154 -15.82592 26522 ft 474 kts 24°
2026-04-07 15:05 33.52898 -15.80393 26917 ft 473 kts 24°
2026-04-07 15:06 33.55595 -15.78228 27317 ft 473 kts 24°
2026-04-07 15:06 33.58344 -15.76076 27729 ft 470 kts 22°
2026-04-07 15:06 33.61117 -15.74011 28120 ft 469 kts 21°
2026-04-07 15:06 33.63908 -15.72000 28530 ft 468 kts 20°
2026-04-07 15:07 33.66704 -15.70011 28943 ft 467 kts 20°
2026-04-07 15:07 33.69502 -15.68017 29356 ft 467 kts 20°
2026-04-07 15:07 33.72291 -15.66007 29774 ft 468 kts 21°
2026-04-07 15:07 33.75070 -15.63978 30358 ft 466 kts 20°
2026-04-07 15:08 33.77827 -15.61945 30786 ft 464 kts 20°
2026-04-07 15:08 33.80572 -15.59913 31220 ft 462 kts 20°
2026-04-07 15:08 33.83305 -15.57887 31639 ft 461 kts 20°
2026-04-07 15:08 33.86031 -15.55868 32052 ft 459 kts 20°
2026-04-07 15:09 33.88747 -15.53856 32464 ft 458 kts 20°
2026-04-07 15:09 33.91466 -15.51847 32881 ft 456 kts 20°
2026-04-07 15:09 33.94164 -15.49855 33289 ft 455 kts 20°
2026-04-07 15:09 33.96867 -15.47859 33700 ft 454 kts 20°
2026-04-07 15:10 33.99555 -15.45872 34117 ft 452 kts 20°
2026-04-07 15:10 34.02233 -15.43888 34538 ft 451 kts 20°
2026-04-07 15:10 34.04868 -15.41932 34884 ft 450 kts 20°
2026-04-07 15:10 34.07531 -15.39957 35213 ft 449 kts 20°
2026-04-07 15:11 34.10193 -15.37986 35537 ft 449 kts 20°
2026-04-07 15:11 34.12861 -15.36007 35846 ft 449 kts 20°
2026-04-07 15:11 34.15523 -15.34032 36139 ft 449 kts 20°
2026-04-07 15:11 34.18184 -15.32051 36425 ft 449 kts 20°
2026-04-07 15:12 34.20841 -15.30067 36707 ft 449 kts 20°
2026-04-07 15:12 34.23497 -15.28078 36983 ft 449 kts 20°
2026-04-07 15:12 34.26157 -15.26088 37256 ft 449 kts 20°
2026-04-07 15:12 34.28817 -15.24097 37591 ft 449 kts 20°
2026-04-07 15:13 34.31471 -15.22115 37905 ft 448 kts 20°
2026-04-07 15:13 34.34122 -15.20137 38146 ft 448 kts 20°
2026-04-07 15:13 34.36771 -15.18156 38218 ft 448 kts 20°
2026-04-07 15:14 34.42069 -15.14181 38215 ft 448 kts 20°
2026-04-07 15:14 34.47368 -15.10213 38214 ft 447 kts 20°
2026-04-07 15:15 34.52665 -15.06238 38212 ft 448 kts 20°
2026-04-07 15:15 34.57927 -15.02285 38238 ft 447 kts 20°
2026-04-07 15:16 34.63206 -14.98306 38229 ft 447 kts 20°
2026-04-07 15:16 34.68524 -14.94292 38235 ft 447 kts 20°
2026-04-07 15:17 34.73783 -14.90331 38213 ft 448 kts 21°
2026-04-07 15:17 34.79081 -14.86324 38212 ft 449 kts 21°
2026-04-07 15:18 34.84385 -14.82296 38258 ft 449 kts 22°
2026-04-07 15:18 34.89699 -14.78255 38203 ft 450 kts 22°
2026-04-07 15:19 34.95014 -14.74212 38199 ft 451 kts 22°
2026-04-07 15:19 35.00341 -14.70163 38203 ft 451 kts 22°
2026-04-07 15:20 35.05663 -14.66098 38205 ft 452 kts 22°
2026-04-07 15:20 35.10970 -14.62045 38201 ft 452 kts 22°
2026-04-07 15:21 35.16339 -14.57948 38203 ft 452 kts 22°
2026-04-07 15:21 35.21662 -14.53875 38178 ft 456 kts 23°
2026-04-07 15:22 35.27052 -14.49727 38173 ft 458 kts 23°
2026-04-07 15:22 35.32450 -14.45576 38174 ft 459 kts 23°
2026-04-07 15:23 35.37873 -14.41403 38201 ft 459 kts 23°
2026-04-07 15:23 35.43272 -14.37240 38174 ft 461 kts 24°
2026-04-07 15:24 35.48701 -14.33042 38169 ft 461 kts 24°
2026-04-07 15:24 35.54126 -14.28846 38175 ft 462 kts 24°
2026-04-07 15:25 35.59559 -14.24633 38176 ft 462 kts 24°
2026-04-07 15:25 35.65003 -14.20414 38192 ft 463 kts 24°
2026-04-07 15:26 35.70484 -14.16164 38152 ft 467 kts 25°
2026-04-07 15:26 35.75990 -14.11880 38143 ft 469 kts 25°
2026-04-07 15:27 35.81512 -14.07563 38148 ft 470 kts 25°
2026-04-07 15:27 35.87041 -14.03243 38150 ft 471 kts 25°
2026-04-07 15:28 35.92541 -13.98934 38193 ft 471 kts 25°
2026-04-07 15:28 35.98082 -13.94596 38163 ft 472 kts 25°
2026-04-07 15:29 36.03631 -13.90243 38155 ft 472 kts 25°
2026-04-07 15:29 36.09173 -13.85880 38156 ft 472 kts 25°
2026-04-07 15:30 36.14722 -13.81503 38147 ft 474 kts 26°
2026-04-07 15:30 36.20287 -13.77113 38154 ft 475 kts 26°
2026-04-07 15:31 36.25861 -13.72709 38144 ft 475 kts 26°
2026-04-07 15:31 36.31438 -13.68296 38142 ft 476 kts 26°
2026-04-07 15:32 36.37013 -13.63866 38134 ft 476 kts 26°
2026-04-07 15:32 36.42596 -13.59429 38134 ft 476 kts 26°
2026-04-07 15:33 36.48132 -13.55019 38118 ft 475 kts 27°
2026-04-07 15:33 36.53692 -13.50587 38115 ft 475 kts 27°
2026-04-07 15:34 36.59261 -13.46133 38109 ft 476 kts 27°
2026-04-07 15:34 36.64849 -13.41713 38099 ft 476 kts 26°
2026-04-07 15:35 36.70558 -13.37514 38097 ft 476 kts 24°
2026-04-07 15:35 36.76304 -13.33390 38124 ft 476 kts 25°
2026-04-07 15:36 36.82028 -13.29215 38110 ft 477 kts 25°
2026-04-07 15:36 36.87728 -13.24979 38101 ft 477 kts 26°
2026-04-07 15:37 36.93428 -13.20735 38100 ft 477 kts 26°
2026-04-07 15:37 36.99137 -13.16496 38115 ft 477 kts 26°
2026-04-07 15:38 37.04840 -13.12263 38109 ft 477 kts 26°
2026-04-07 15:38 37.10519 -13.08045 38084 ft 478 kts 26°
2026-04-07 15:39 37.16233 -13.03781 38074 ft 478 kts 26°
2026-04-07 15:39 37.21954 -12.99505 38068 ft 479 kts 26°
2026-04-07 15:40 37.26712 -12.95944 38086 ft 479 kts 27°
2026-04-07 15:40 37.32435 -12.91647 38074 ft 479 kts 27°
2026-04-07 15:41 37.38158 -12.87347 38066 ft 479 kts 27°
2026-04-07 15:41 37.43886 -12.83034 38062 ft 479 kts 27°
2026-04-07 15:42 37.49608 -12.78721 38072 ft 479 kts 27°
2026-04-07 15:42 37.58204 -12.72235 38049 ft 480 kts 27°
2026-04-07 15:43 37.63939 -12.67898 38042 ft 481 kts 27°
2026-04-07 15:43 37.69675 -12.63540 38039 ft 481 kts 27°
2026-04-07 15:44 37.75413 -12.59172 38028 ft 482 kts 27°
2026-04-07 15:44 37.81155 -12.54799 38024 ft 482 kts 28°
2026-04-07 15:45 37.86896 -12.50413 38023 ft 482 kts 27°
2026-04-07 15:45 37.92601 -12.46047 38019 ft 482 kts 28°
2026-04-07 15:46 37.98353 -12.41657 38027 ft 482 kts 27°
2026-04-07 15:46 38.04105 -12.37247 38014 ft 483 kts 29°
2026-04-07 15:47 38.09876 -12.32811 37989 ft 485 kts 28°
2026-04-07 15:47 38.15610 -12.28398 37996 ft 485 kts 29°
2026-04-07 15:48 38.21383 -12.23941 37998 ft 486 kts 28°
2026-04-07 15:48 38.27164 -12.19462 37991 ft 486 kts 29°
2026-04-07 15:49 38.32948 -12.14983 37967 ft 487 kts 29°
2026-04-07 15:49 38.38748 -12.10492 37966 ft 488 kts 27°
2026-04-07 15:50 38.44549 -12.05993 37959 ft 488 kts 30°
2026-04-07 15:50 38.50353 -12.01478 37947 ft 489 kts 29°
2026-04-07 15:51 38.56176 -11.96933 37940 ft 490 kts 30°
2026-04-07 15:51 38.62007 -11.92368 37932 ft 491 kts 30°
2026-04-07 15:52 38.67834 -11.87796 37935 ft 492 kts 30°
2026-04-07 15:52 38.73636 -11.83249 37921 ft 492 kts 31°
2026-04-07 15:53 38.79472 -11.78658 37935 ft 492 kts 30°
2026-04-07 15:53 38.85309 -11.74061 37929 ft 492 kts 31°
2026-04-07 15:54 38.91147 -11.69457 37917 ft 491 kts 30°
2026-04-07 15:54 38.96927 -11.64883 37916 ft 491 kts 31°
2026-04-07 15:55 39.02734 -11.60274 37900 ft 491 kts 31°
2026-04-07 15:55 39.08543 -11.55666 37902 ft 490 kts 31°
2026-04-07 15:56 39.14353 -11.51050 37890 ft 490 kts 31°
2026-04-07 15:56 39.20167 -11.46431 37876 ft 490 kts 31°
2026-04-07 15:57 39.25968 -11.41796 37880 ft 490 kts 32°
2026-04-07 15:57 39.31762 -11.37145 37867 ft 490 kts 32°
2026-04-07 15:58 39.37638 -11.32660 37872 ft 490 kts 30°
2026-04-07 15:58 39.43554 -11.28405 37840 ft 491 kts 30°
2026-04-07 15:59 39.49526 -11.24080 37833 ft 492 kts 30°
2026-04-07 15:59 39.55464 -11.19676 37845 ft 492 kts 31°
2026-04-07 16:00 39.61392 -11.15240 37839 ft 492 kts 31°
2026-04-07 16:00 39.67328 -11.10807 37841 ft 492 kts 31°
2026-04-07 16:01 39.73271 -11.06382 37844 ft 492 kts 31°
2026-04-07 16:01 39.79205 -11.01957 37858 ft 491 kts 31°
2026-04-07 16:02 39.85125 -10.97522 37847 ft 490 kts 31°
2026-04-07 16:02 39.91024 -10.93090 37820 ft 489 kts 31°
2026-04-07 16:03 39.96898 -10.88677 37817 ft 490 kts 31°
2026-04-07 16:03 40.02808 -10.84223 37834 ft 491 kts 31°
2026-04-07 16:04 40.08724 -10.79757 37840 ft 491 kts 32°
2026-04-07 16:04 40.14648 -10.75277 37836 ft 492 kts 31°
2026-04-07 16:05 40.20566 -10.70800 37847 ft 492 kts 32°
2026-04-07 16:05 40.26491 -10.66302 37842 ft 492 kts 32°
2026-04-07 16:06 40.32405 -10.61793 37854 ft 492 kts 32°
2026-04-07 16:06 40.38317 -10.57277 37830 ft 492 kts 32°
2026-04-07 16:07 40.44233 -10.52758 37838 ft 492 kts 33°
2026-04-07 16:07 40.50115 -10.48256 37847 ft 492 kts 32°
2026-04-07 16:08 40.56032 -10.43720 37854 ft 492 kts 33°
2026-04-07 16:08 40.61930 -10.39184 37871 ft 491 kts 33°
2026-04-07 16:09 40.67842 -10.34626 37867 ft 491 kts 33°
2026-04-07 16:09 40.73738 -10.30087 37874 ft 491 kts 33°
2026-04-07 16:10 40.79644 -10.25525 37883 ft 491 kts 33°
2026-04-07 16:10 40.85538 -10.20966 37885 ft 491 kts 33°
2026-04-07 16:11 40.91406 -10.16409 37854 ft 492 kts 33°
2026-04-07 16:11 40.97312 -10.11808 37872 ft 493 kts 33°
2026-04-07 16:12 41.03221 -10.07183 37876 ft 493 kts 33°
2026-04-07 16:12 41.09134 -10.02563 37886 ft 494 kts 33°
2026-04-07 16:13 41.15059 -9.97932 37898 ft 494 kts 34°
2026-04-07 16:13 41.20971 -9.93283 37904 ft 494 kts 34°
2026-04-07 16:14 41.26880 -9.88619 37908 ft 494 kts 34°
2026-04-07 16:14 41.32789 -9.83944 37910 ft 494 kts 34°
2026-04-07 16:15 41.38699 -9.79273 37894 ft 494 kts 34°
2026-04-07 16:15 41.44574 -9.74633 37922 ft 494 kts 34°
2026-04-07 16:16 41.50475 -9.69949 37928 ft 493 kts 34°
2026-04-07 16:16 41.56372 -9.65243 37938 ft 493 kts 34°
2026-04-07 16:17 41.62260 -9.60542 37933 ft 493 kts 35°
2026-04-07 16:17 41.68144 -9.55845 37937 ft 492 kts 35°
2026-04-07 16:18 41.74022 -9.51142 37950 ft 492 kts 35°
2026-04-07 16:18 41.79895 -9.46434 37949 ft 492 kts 35°
2026-04-07 16:19 41.85761 -9.41716 37927 ft 491 kts 36°
2026-04-07 16:19 41.91609 -9.36959 37947 ft 489 kts 39°
2026-04-07 16:20 41.96760 -9.31155 37951 ft 482 kts 47°
2026-04-07 16:20 42.01704 -9.25133 37949 ft 482 kts 47°
2026-04-07 16:21 42.06682 -9.19087 37952 ft 482 kts 47°
2026-04-07 16:21 42.11663 -9.13033 37952 ft 483 kts 47°
2026-04-07 16:22 42.16640 -9.06962 37932 ft 482 kts 48°
2026-04-07 16:22 42.21601 -9.00879 37975 ft 482 kts 48°
2026-04-07 16:23 42.26559 -8.94784 37981 ft 481 kts 48°
2026-04-07 16:23 42.31501 -8.88705 38002 ft 480 kts 48°
2026-04-07 16:24 42.36435 -8.82639 38004 ft 479 kts 48°
2026-04-07 16:24 42.41346 -8.76575 38004 ft 478 kts 48°
2026-04-07 16:25 42.46241 -8.70498 37971 ft 477 kts 48°
2026-04-07 16:25 42.51136 -8.64419 37990 ft 476 kts 48°
2026-04-07 16:26 42.56021 -8.58349 38001 ft 476 kts 48°
2026-04-07 16:26 42.60882 -8.52307 38008 ft 476 kts 48°
2026-04-07 16:27 42.65761 -8.46219 38005 ft 476 kts 48°
2026-04-07 16:27 42.70626 -8.40116 38005 ft 476 kts 48°
2026-04-07 16:28 42.75487 -8.34007 37943 ft 476 kts 49°
2026-04-07 16:28 42.80356 -8.27884 37962 ft 477 kts 49°
2026-04-07 16:29 42.85235 -8.21743 37972 ft 478 kts 49°
2026-04-07 16:29 42.89293 -8.16627 37981 ft 478 kts 49°
2026-04-07 16:30 42.94204 -8.10405 37974 ft 479 kts 49°
2026-04-07 16:30 42.99050 -8.04246 37982 ft 479 kts 49°
2026-04-07 16:31 43.03926 -7.98051 37975 ft 479 kts 49°
2026-04-07 16:31 43.08809 -7.91834 37978 ft 479 kts 49°
2026-04-07 16:32 43.13687 -7.85617 37976 ft 479 kts 49°
2026-04-07 16:32 43.18564 -7.79383 37978 ft 479 kts 49°
2026-04-07 16:33 43.23423 -7.73143 37988 ft 479 kts 49°
2026-04-07 16:33 43.28281 -7.66889 37984 ft 478 kts 49°
2026-04-07 16:34 43.33130 -7.60639 37985 ft 478 kts 49°
2026-04-07 16:34 43.37940 -7.54428 37976 ft 477 kts 49°
2026-04-07 16:35 43.42762 -7.48180 37972 ft 475 kts 49°
2026-04-07 16:35 43.47566 -7.41945 37970 ft 474 kts 49°
2026-04-07 16:36 43.52364 -7.35709 37963 ft 474 kts 49°
2026-04-07 16:36 43.57164 -7.29456 37964 ft 474 kts 49°
2026-04-07 16:37 43.61949 -7.23200 37944 ft 474 kts 49°
2026-04-07 16:37 43.66731 -7.16925 37914 ft 475 kts 49°
2026-04-07 16:38 43.71531 -7.10624 37914 ft 477 kts 49°
2026-04-07 16:38 43.76351 -7.04295 37920 ft 478 kts 49°
2026-04-07 16:39 43.81141 -6.97978 37914 ft 478 kts 49°
2026-04-07 16:39 43.85986 -6.91578 37915 ft 478 kts 49°
2026-04-07 16:40 43.90769 -6.85243 37917 ft 479 kts 49°
2026-04-07 16:40 43.95579 -6.78847 37899 ft 480 kts 49°
2026-04-07 16:41 44.00403 -6.72417 37903 ft 481 kts 49°
2026-04-07 16:41 44.05232 -6.65971 37898 ft 481 kts 49°
2026-04-07 16:42 44.10062 -6.59512 37907 ft 481 kts 49°
2026-04-07 16:42 44.14860 -6.53085 37921 ft 482 kts 49°
2026-04-07 16:43 44.19683 -6.46603 37912 ft 482 kts 49°
2026-04-07 16:43 44.24505 -6.40110 37913 ft 482 kts 48°
2026-04-07 16:44 44.29322 -6.33601 37946 ft 481 kts 48°
2026-04-07 16:44 44.34122 -6.27092 37957 ft 481 kts 48°
2026-04-07 16:45 44.38920 -6.20588 37965 ft 480 kts 48°
2026-04-07 16:45 44.43711 -6.14084 37962 ft 480 kts 49°
2026-04-07 16:46 44.48491 -6.07559 37932 ft 479 kts 48°
2026-04-07 16:46 44.53252 -6.01046 37957 ft 478 kts 48°
2026-04-07 16:47 44.58007 -5.94543 37963 ft 477 kts 48°
2026-04-07 16:47 44.62745 -5.88036 37973 ft 476 kts 49°
2026-04-07 16:48 44.67469 -5.81522 37971 ft 476 kts 48°
2026-04-07 16:49 44.74562 -5.71838 37975 ft 475 kts 48°
2026-04-07 16:49 44.79293 -5.65353 37968 ft 474 kts 48°
2026-04-07 16:50 44.84002 -5.58875 37989 ft 473 kts 48°
2026-04-07 16:50 44.88699 -5.52385 37995 ft 472 kts 47°
2026-04-07 16:51 44.93370 -5.45911 38003 ft 470 kts 47°
2026-04-07 16:51 44.98036 -5.39444 38003 ft 469 kts 47°
2026-04-07 16:52 45.02692 -5.32983 37987 ft 468 kts 47°
2026-04-07 16:52 45.07331 -5.26515 37989 ft 468 kts 47°
2026-04-07 16:53 45.11970 -5.20036 38006 ft 468 kts 47°
2026-04-07 16:53 45.16565 -5.13597 38009 ft 467 kts 47°
2026-04-07 16:54 45.21177 -5.07127 38017 ft 466 kts 47°
2026-04-07 16:54 45.25785 -5.00655 37997 ft 466 kts 47°
2026-04-07 16:55 45.30392 -4.94163 38008 ft 465 kts 47°
2026-04-07 16:55 45.34986 -4.87683 38017 ft 465 kts 47°
2026-04-07 16:56 45.39571 -4.81186 38025 ft 465 kts 47°
2026-04-07 16:56 45.44140 -4.74686 38030 ft 464 kts 47°
2026-04-07 16:57 45.48712 -4.68183 38031 ft 464 kts 47°
2026-04-07 16:57 45.53284 -4.61685 38015 ft 464 kts 47°
2026-04-07 16:58 45.57827 -4.55189 38019 ft 465 kts 47°
2026-04-07 16:58 45.62395 -4.48627 38031 ft 466 kts 47°
2026-04-07 16:59 45.66967 -4.42053 38037 ft 466 kts 47°
2026-04-07 16:59 45.71537 -4.35485 38054 ft 466 kts 47°
2026-04-07 17:00 45.76108 -4.28886 38057 ft 466 kts 47°
2026-04-07 17:00 45.80666 -4.22283 38063 ft 466 kts 47°
2026-04-07 17:01 45.85226 -4.15669 38064 ft 466 kts 47°
2026-04-07 17:01 45.89774 -4.09053 38065 ft 465 kts 47°
2026-04-07 17:02 45.94314 -4.02429 38067 ft 465 kts 48°
2026-04-07 17:02 45.98824 -3.95833 38057 ft 465 kts 48°
2026-04-07 17:03 46.03345 -3.89187 38061 ft 465 kts 48°
2026-04-07 17:03 46.07869 -3.82532 38064 ft 464 kts 48°
2026-04-07 17:04 46.12387 -3.75882 38074 ft 464 kts 48°
2026-04-07 17:04 46.16898 -3.69229 38080 ft 464 kts 48°
2026-04-07 17:05 46.21399 -3.62573 38084 ft 463 kts 48°
2026-04-07 17:05 46.25906 -3.55897 38060 ft 463 kts 48°
2026-04-07 17:06 46.30401 -3.49204 38068 ft 464 kts 48°
2026-04-07 17:06 46.34893 -3.42504 38075 ft 464 kts 48°
2026-04-07 17:07 46.39384 -3.35794 38082 ft 464 kts 48°
2026-04-07 17:07 46.43881 -3.29055 38083 ft 464 kts 48°
2026-04-07 17:08 46.48340 -3.22364 38089 ft 464 kts 48°
2026-04-07 17:08 46.52829 -3.15610 38095 ft 464 kts 48°
2026-04-07 17:09 46.57125 -3.08643 38104 ft 462 kts 57°
2026-04-07 17:09 46.60429 -3.00658 38098 ft 460 kts 62°
2026-04-07 17:10 46.63655 -2.92622 38098 ft 460 kts 62°
2026-04-07 17:10 46.66883 -2.84582 38104 ft 460 kts 62°
2026-04-07 17:11 46.70079 -2.76580 38102 ft 460 kts 62°
2026-04-07 17:11 46.73293 -2.68526 38100 ft 460 kts 62°
2026-04-07 17:12 46.76496 -2.60462 38096 ft 459 kts 62°
2026-04-07 17:12 46.79689 -2.52389 38100 ft 459 kts 62°
2026-04-07 17:13 46.82873 -2.44305 38090 ft 459 kts 62°
2026-04-07 17:13 46.86052 -2.36204 38101 ft 459 kts 62°
2026-04-07 17:14 46.89344 -2.28196 38100 ft 460 kts 60°
2026-04-07 17:14 46.92758 -2.20258 38105 ft 460 kts 59°
2026-04-07 17:15 46.96149 -2.12329 38097 ft 460 kts 60°
2026-04-07 17:15 46.98933 -2.05687 38097 ft 460 kts 60°
2026-04-07 17:16 47.02239 -1.97665 38080 ft 460 kts 61°
2026-04-07 17:16 47.05388 -1.89493 38092 ft 460 kts 63°
2026-04-07 17:17 47.08475 -1.81279 38096 ft 460 kts 63°
2026-04-07 17:17 47.11593 -1.73088 38120 ft 460 kts 62°
2026-04-07 17:18 47.14727 -1.64904 38120 ft 460 kts 62°
2026-04-07 17:18 47.17875 -1.56712 38104 ft 460 kts 62°
2026-04-07 17:19 47.20980 -1.48462 38107 ft 460 kts 63°
2026-04-07 17:19 47.24005 -1.40164 38109 ft 461 kts 64°
2026-04-07 17:20 47.27014 -1.31897 38110 ft 461 kts 63°
2026-04-07 17:20 47.30051 -1.23579 38103 ft 461 kts 63°
2026-04-07 17:21 47.33085 -1.15264 38107 ft 461 kts 63°
2026-04-07 17:21 47.36121 -1.06925 38104 ft 461 kts 63°
2026-04-07 17:22 47.39142 -0.98582 38104 ft 461 kts 64°
2026-04-07 17:22 47.42161 -0.90222 38108 ft 461 kts 64°
2026-04-07 17:23 47.45173 -0.81860 38101 ft 462 kts 64°
2026-04-07 17:23 47.48188 -0.73473 38104 ft 462 kts 64°
2026-04-07 17:24 47.51194 -0.65085 38108 ft 462 kts 64°
2026-04-07 17:24 47.54188 -0.56684 38109 ft 462 kts 64°
2026-04-07 17:25 47.57155 -0.48307 38116 ft 462 kts 64°
2026-04-07 17:25 47.60142 -0.39879 38116 ft 462 kts 64°
2026-04-07 17:26 47.63129 -0.31439 38118 ft 463 kts 64°
2026-04-07 17:26 47.66111 -0.22986 38121 ft 463 kts 64°
2026-04-07 17:27 47.69089 -0.14488 38124 ft 463 kts 64°
2026-04-07 17:27 47.72049 -0.06002 38131 ft 463 kts 64°
2026-04-07 17:28 47.75008 0.02486 38133 ft 463 kts 64°
2026-04-07 17:28 47.77953 0.10940 38135 ft 463 kts 64°
2026-04-07 17:29 47.80909 0.19448 38146 ft 463 kts 64°
2026-04-07 17:29 47.83855 0.27979 38148 ft 463 kts 64°
2026-04-07 17:30 47.86802 0.36534 38149 ft 463 kts 64°
2026-04-07 17:30 47.89733 0.45086 38148 ft 463 kts 64°
2026-04-07 17:31 47.92639 0.53596 38154 ft 463 kts 64°
2026-04-07 17:31 47.95581 0.62212 38160 ft 463 kts 64°
2026-04-07 17:32 47.98481 0.70741 38160 ft 463 kts 65°
2026-04-07 17:32 48.01382 0.79324 38160 ft 463 kts 65°
2026-04-07 17:33 48.04283 0.87928 38156 ft 463 kts 65°
2026-04-07 17:33 48.07179 0.96531 38163 ft 463 kts 65°
2026-04-07 17:34 48.10065 1.05149 38169 ft 463 kts 65°
2026-04-07 17:34 48.12942 1.13780 38171 ft 463 kts 65°
2026-04-07 17:35 48.15817 1.22418 38173 ft 464 kts 65°
2026-04-07 17:35 48.18700 1.31067 38162 ft 463 kts 65°
2026-04-07 17:36 48.21566 1.39715 38171 ft 463 kts 65°
2026-04-07 17:36 48.24419 1.48381 38173 ft 463 kts 65°
2026-04-07 17:37 48.27252 1.57022 38174 ft 463 kts 65°
2026-04-07 17:37 48.30097 1.65709 38177 ft 463 kts 65°
2026-04-07 17:38 48.32936 1.74409 38176 ft 463 kts 65°
2026-04-07 17:38 48.35762 1.83102 38180 ft 463 kts 65°
2026-04-07 17:39 48.38584 1.91810 38188 ft 463 kts 65°
2026-04-07 17:39 48.41405 2.00541 38190 ft 463 kts 65°
2026-04-07 17:40 48.44220 2.09278 38193 ft 463 kts 65°
2026-04-07 17:40 48.47026 2.18010 38189 ft 463 kts 65°
2026-04-07 17:41 48.49819 2.26761 38196 ft 463 kts 65°
2026-04-07 17:41 48.52610 2.35532 38203 ft 463 kts 65°
2026-04-07 17:42 48.55390 2.44284 38206 ft 463 kts 65°
2026-04-07 17:42 48.58156 2.53007 38208 ft 463 kts 65°
2026-04-07 17:43 48.60926 2.61793 38200 ft 463 kts 65°
2026-04-07 17:43 48.63680 2.70584 38202 ft 463 kts 65°
2026-04-07 17:44 48.66424 2.79385 38205 ft 463 kts 65°
2026-04-07 17:44 48.69166 2.88183 38212 ft 463 kts 65°
2026-04-07 17:45 48.71916 2.97004 38218 ft 463 kts 65°
2026-04-07 17:45 48.74656 3.05818 38213 ft 462 kts 65°
2026-04-07 17:46 48.77392 3.14663 38215 ft 463 kts 66°
2026-04-07 17:46 48.80107 3.23505 38228 ft 462 kts 66°
2026-04-07 17:47 48.82811 3.32361 38227 ft 462 kts 66°
2026-04-07 17:47 48.85495 3.41153 38228 ft 462 kts 66°
2026-04-07 17:48 48.88191 3.50006 38228 ft 462 kts 66°
2026-04-07 17:48 48.90878 3.58889 38229 ft 462 kts 66°
2026-04-07 17:49 48.93565 3.67780 38232 ft 463 kts 66°
2026-04-07 17:49 48.96249 3.76672 38233 ft 463 kts 66°
2026-04-07 17:50 48.98920 3.85586 38234 ft 463 kts 66°
2026-04-07 17:50 49.01587 3.94507 38233 ft 462 kts 66°
2026-04-07 17:51 49.04242 4.03437 38229 ft 463 kts 66°
2026-04-07 17:51 49.06888 4.12378 38225 ft 463 kts 66°
2026-04-07 17:52 49.09587 4.21296 38223 ft 463 kts 65°
2026-04-07 17:52 49.12389 4.30159 38224 ft 463 kts 65°
2026-04-07 17:53 49.15176 4.38959 38229 ft 464 kts 65°
2026-04-07 17:53 49.19329 4.52320 38236 ft 463 kts 65°
2026-04-07 17:54 49.22075 4.61233 38254 ft 463 kts 65°
2026-04-07 17:54 49.24828 4.70167 38255 ft 464 kts 65°
2026-04-07 17:55 49.27583 4.79104 38258 ft 464 kts 65°
2026-04-07 17:55 49.30316 4.88042 38257 ft 464 kts 65°
2026-04-07 17:56 49.33038 4.97023 38261 ft 464 kts 65°
2026-04-07 17:56 49.35757 5.05987 38267 ft 464 kts 65°
2026-04-07 17:57 49.38465 5.14899 38136 ft 464 kts 65°
2026-04-07 17:57 49.39823 5.19394 37657 ft 463 kts 65°
2026-04-07 17:57 49.41169 5.23878 37200 ft 463 kts 65°
2026-04-07 17:58 49.42519 5.28379 36751 ft 464 kts 65°
2026-04-07 17:58 49.43870 5.32880 36315 ft 465 kts 65°
2026-04-07 17:58 49.45223 5.37402 35875 ft 466 kts 65°
2026-04-07 17:58 49.46573 5.41927 35450 ft 466 kts 65°
2026-04-07 17:59 49.47929 5.46460 35030 ft 467 kts 65°
2026-04-07 17:59 49.49296 5.50997 34619 ft 467 kts 65°
2026-04-07 17:59 49.50663 5.55532 34205 ft 468 kts 65°
2026-04-07 17:59 49.52031 5.60087 33740 ft 469 kts 65°
2026-04-07 18:00 49.53388 5.64650 33280 ft 470 kts 65°
2026-04-07 18:00 49.54739 5.69230 32831 ft 470 kts 65°
2026-04-07 18:00 49.56091 5.73829 32396 ft 472 kts 65°
2026-04-07 18:00 49.57441 5.78440 31954 ft 472 kts 65°
2026-04-07 18:01 49.58795 5.83058 31525 ft 473 kts 65°
2026-04-07 18:01 49.60153 5.87689 31101 ft 472 kts 65°
2026-04-07 18:01 49.61505 5.92303 30684 ft 473 kts 65°
2026-04-07 18:01 49.62855 5.96917 30264 ft 473 kts 64°
2026-04-07 18:02 49.64210 6.01552 29781 ft 473 kts 65°
2026-04-07 18:02 49.65564 6.06196 29302 ft 474 kts 65°
2026-04-07 18:02 49.66459 6.09273 28992 ft 475 kts 65°
2026-04-07 18:02 49.67792 6.13868 28518 ft 468 kts 65°
2026-04-07 18:03 49.69120 6.18455 28074 ft 467 kts 65°
2026-04-07 18:03 49.70436 6.23015 27629 ft 464 kts 65°
2026-04-07 18:03 49.71743 6.27562 27187 ft 461 kts 65°
2026-04-07 18:03 49.73041 6.32086 26752 ft 458 kts 65°
2026-04-07 18:04 49.74327 6.36565 26324 ft 454 kts 64°
2026-04-07 18:04 49.75603 6.41010 25925 ft 451 kts 64°
2026-04-07 18:04 49.76870 6.45435 25579 ft 449 kts 64°
2026-04-07 18:04 49.78132 6.49845 25299 ft 446 kts 64°
2026-04-07 18:05 49.79368 6.54177 25261 ft 446 kts 64°
2026-04-07 18:05 49.80627 6.58591 25269 ft 447 kts 64°
2026-04-07 18:05 49.81879 6.62987 25269 ft 447 kts 64°
2026-04-07 18:05 49.83129 6.67385 25193 ft 447 kts 64°
2026-04-07 18:06 49.84376 6.71787 24712 ft 444 kts 64°
2026-04-07 18:06 49.85606 6.76140 24134 ft 440 kts 64°
2026-04-07 18:06 49.86829 6.80478 23506 ft 436 kts 64°
2026-04-07 18:06 49.88032 6.84746 22838 ft 431 kts 64°
2026-04-07 18:07 49.89241 6.89035 22161 ft 435 kts 64°
2026-04-07 18:07 49.90448 6.93324 21549 ft 433 kts 64°
2026-04-07 18:07 49.91648 6.97608 20914 ft 430 kts 64°
2026-04-07 18:07 49.92831 7.01841 20299 ft 426 kts 64°
2026-04-07 18:08 49.94003 7.06042 19694 ft 422 kts 64°
2026-04-07 18:08 49.95163 7.10209 19100 ft 419 kts 64°
2026-04-07 18:08 49.96313 7.14340 18558 ft 415 kts 64°
2026-04-07 18:08 49.97453 7.18443 18017 ft 412 kts 65°
2026-04-07 18:09 49.98582 7.22514 17490 ft 409 kts 65°
2026-04-07 18:09 49.99704 7.26570 16924 ft 405 kts 65°
2026-04-07 18:09 50.00809 7.30578 16387 ft 402 kts 65°
2026-04-07 18:09 50.01886 7.34496 15840 ft 398 kts 65°
2026-04-07 18:10 50.02969 7.38434 15313 ft 394 kts 65°
2026-04-07 18:10 50.04041 7.42335 14769 ft 390 kts 65°
2026-04-07 18:10 50.05104 7.46202 14256 ft 387 kts 65°
2026-04-07 18:10 50.06154 7.50029 13697 ft 383 kts 65°
2026-04-07 18:11 50.07194 7.53838 13133 ft 380 kts 65°
2026-04-07 18:11 50.08220 7.57612 12569 ft 377 kts 65°
2026-04-07 18:11 50.09234 7.61362 12021 ft 375 kts 66°
2026-04-07 18:11 50.09971 7.65243 11509 ft 374 kts 77°
2026-04-07 18:12 50.10237 7.69277 11306 ft 375 kts 87°
2026-04-07 18:12 50.10049 7.73303 11306 ft 367 kts 97°
2026-04-07 18:12 50.09453 7.77108 11315 ft 359 kts 105°
2026-04-07 18:12 50.08798 7.80846 11306 ft 356 kts 99°
2026-04-07 18:13 50.08526 7.84615 10856 ft 349 kts 88°
2026-04-07 18:13 50.08707 7.88339 10384 ft 341 kts 78°
2026-04-07 18:13 50.09291 7.91880 9890 ft 332 kts 69°
2026-04-07 18:13 50.10044 7.95249 9371 ft 328 kts 76°
2026-04-07 18:14 50.10087 7.98770 8857 ft 327 kts 99°
2026-04-07 18:14 50.09236 8.02014 8349 ft 325 kts 123°
2026-04-07 18:14 50.07646 8.04434 7853 ft 315 kts 147°
2026-04-07 18:14 50.05760 8.05971 7370 ft 297 kts 153°
2026-04-07 18:15 50.03929 8.07315 6889 ft 285 kts 154°
2026-04-07 18:15 50.02181 8.08579 6478 ft 269 kts 154°
2026-04-07 18:15 50.00540 8.09755 6144 ft 252 kts 154°
2026-04-07 18:15 49.98984 8.10930 5812 ft 246 kts 145°
2026-04-07 18:16 49.97867 8.12835 5491 ft 237 kts 114°
2026-04-07 18:16 49.97316 8.15215 5122 ft 231 kts 105°
2026-04-07 18:16 49.96892 8.17553 4669 ft 225 kts 104°
2026-04-07 18:16 49.96688 8.19902 4320 ft 215 kts 84°
2026-04-07 18:17 49.97032 8.22074 4044 ft 203 kts 69°
2026-04-07 18:17 49.97524 8.24092 3804 ft 195 kts 69°
2026-04-07 18:17 49.97991 8.26013 3533 ft 185 kts 69°
2026-04-07 18:17 49.98434 8.27844 3285 ft 177 kts 69°
2026-04-07 18:18 49.98861 8.29604 3051 ft 170 kts 69°
2026-04-07 18:18 49.99269 8.31292 2824 ft 164 kts 68°
2026-04-07 18:18 49.99683 8.33004 2629 ft 174 kts 68°
2026-04-07 18:18 50.00114 8.34785 2399 ft 176 kts 68°
2026-04-07 18:19 50.00520 8.36481 2175 ft 157 kts 68°
2026-04-07 18:19 50.00884 8.38010 1910 ft 145 kts 68°
2026-04-07 18:19 50.01224 8.39429 1703 ft 135 kts 68°
2026-04-07 18:19 50.01544 8.40752 1530 ft 129 kts 67°
2026-04-07 18:20 50.01856 8.42046 1377 ft 128 kts 67°
2026-04-07 18:20 50.02169 8.43345 1201 ft 129 kts 68°
2026-04-07 18:20 50.02479 8.44647 1038 ft 128 kts 67°
2026-04-07 18:20 50.02787 8.45936 867 ft 129 kts 66°
2026-04-07 18:21 50.03106 8.47228 680 ft 127 kts 67°
2026-04-07 18:21 50.03417 8.48516 523 ft 127 kts 66°
2026-04-07 18:21 50.03728 8.49806 348 ft 126 kts 66°
2026-04-07 18:21 50.04008 8.50960 326 ft 97 kts 70°
2026-04-07 18:22 50.04215 8.51834 335 ft 76 kts 69°
2026-04-07 18:22 50.04357 8.52428 352 ft 42 kts 70°
2026-04-07 18:22 50.04397 8.52791 356 ft 32 kts 100°
2026-04-07 18:22 50.04361 8.53123 358 ft 30 kts 100°
2026-04-07 18:23 50.04375 8.53390 372 ft 23 kts 66°
2026-04-07 18:23 50.04402 8.53631 376 ft 24 kts 84°
2026-04-07 18:23 50.04423 8.53906 376 ft 27 kts 83°
2026-04-07 18:23 50.04439 8.54174 375 ft 16 kts 84°
2026-04-07 18:24 50.04450 8.54338 374 ft 15 kts 85°
2026-04-07 18:24 50.04449 8.54495 368 ft 18 kts 101°
2026-04-07 18:24 50.04383 8.54694 362 ft 24 kts 135°
2026-04-07 18:24 50.04230 8.54818 356 ft 23 kts 161°
2026-04-07 18:25 50.04108 8.54888 350 ft 16 kts 159°
2026-04-07 18:25 50.04036 8.54933 358 ft 9 kts 149°
2026-04-07 18:25 50.04015 8.55004 355 ft 7 kts 81°
2026-04-07 18:25 50.04033 8.55075 360 ft 10 kts 69°
2026-04-07 18:26 50.04063 8.55198 356 ft 15 kts 71°
2026-04-07 18:26 50.04109 8.55392 355 ft 23 kts 70°
2026-04-07 18:26 50.04164 8.55640 355 ft 25 kts 69°
2026-04-07 18:26 50.04215 8.55837 358 ft 9 kts 69°
2026-04-07 18:27 50.04225 8.55878 357 ft 2 kts 70°
2026-04-07 18:27 50.04227 8.55888 360 ft 2 kts 70°
2026-04-07 18:27 50.04246 8.55965 357 ft 12 kts 69°
2026-04-07 18:27 50.04283 8.56123 356 ft 19 kts 71°
2026-04-07 18:28 50.04335 8.56336 357 ft 22 kts 69°
2026-04-07 18:28 50.04391 8.56574 360 ft 25 kts 70°
2026-04-07 18:28 50.04458 8.56850 365 ft 28 kts 69°
2026-04-07 18:28 50.04529 8.57147 364 ft 31 kts 72°